createdAt,value
2023-04-11T00:01:18.860Z,1001.29
2023-04-11T00:04:18.920Z,1001.41
2023-04-11T00:07:18.855Z,1001.31
2023-04-11T00:10:18.853Z,1001.22
2023-04-11T00:13:18.848Z,1001.16
2023-04-11T00:16:18.866Z,1001.17
2023-04-11T00:19:18.848Z,1001.34
2023-04-11T00:22:18.848Z,1001.27
2023-04-11T00:25:18.853Z,1001.11
2023-04-11T00:28:18.852Z,1001.07
2023-04-11T00:31:18.865Z,1001.08
2023-04-11T00:34:18.841Z,1001.06
2023-04-11T00:37:18.839Z,1001.09
2023-04-11T00:40:18.870Z,1001.11
2023-04-11T00:43:18.835Z,1001.07
2023-04-11T00:46:19.152Z,1000.84
2023-04-11T00:49:19.118Z,1000.67
2023-04-11T00:52:18.841Z,1000.64
2023-04-11T00:55:18.831Z,1000.73
2023-04-11T00:58:18.833Z,1000.78
2023-04-11T01:01:18.864Z,1000.97
2023-04-11T01:04:18.855Z,1001.15
2023-04-11T01:07:18.836Z,1001.22
2023-04-11T01:10:18.837Z,1001.19
2023-04-11T01:13:18.832Z,1001.27
2023-04-11T01:16:18.863Z,1001.3
2023-04-11T01:19:18.834Z,1001.47
2023-04-11T01:22:18.830Z,1001.48
2023-04-11T01:25:18.832Z,1001.71
2023-04-11T01:28:18.833Z,1001.76
2023-04-11T01:31:18.867Z,1001.81
2023-04-11T01:34:18.832Z,1001.68
2023-04-11T01:37:18.826Z,1001.59
2023-04-11T01:40:18.839Z,1001.47
2023-04-11T01:43:18.827Z,1001.42
2023-04-11T01:46:18.824Z,1001.46
2023-04-11T01:49:18.827Z,1001.38
2023-04-11T01:52:18.812Z,1001.36
2023-04-11T01:55:18.818Z,1001.34
2023-04-11T01:58:18.814Z,1001.36
2023-04-11T02:01:18.845Z,1001.47
2023-04-11T02:04:18.891Z,1001.37
2023-04-11T02:07:18.814Z,1001.34
2023-04-11T02:10:18.810Z,1001.45
2023-04-11T02:13:18.814Z,1001.4
2023-04-11T02:16:18.829Z,1001.39
2023-04-11T02:19:18.815Z,1001.36
2023-04-11T02:22:18.802Z,1001.36
2023-04-11T02:25:18.812Z,1001.37
2023-04-11T02:28:18.802Z,1001.34
2023-04-11T02:31:18.839Z,1001.35
2023-04-11T02:34:18.800Z,1001.41
2023-04-11T02:37:18.805Z,1001.43
2023-04-11T02:40:18.808Z,1001.48
2023-04-11T02:43:18.814Z,1001.46
2023-04-11T02:46:18.808Z,1001.4
2023-04-11T02:49:18.801Z,1001.54
2023-04-11T02:52:18.808Z,1001.59
2023-04-11T02:55:18.805Z,1001.56
2023-04-11T02:58:18.795Z,1001.51
2023-04-11T03:01:18.812Z,1001.56
2023-04-11T03:04:18.801Z,1001.57
2023-04-11T03:07:18.800Z,1001.51
2023-04-11T03:10:18.925Z,1001.55
2023-04-11T03:13:18.790Z,1001.51
2023-04-11T03:16:18.803Z,1001.46
2023-04-11T03:19:18.790Z,1001.37
2023-04-11T03:22:18.785Z,1001.42
2023-04-11T03:25:18.789Z,1001.35
2023-04-11T03:28:18.786Z,1001.28
2023-04-11T03:31:18.786Z,1001.21
2023-04-11T03:34:18.793Z,1001.15
2023-04-11T03:37:18.790Z,1001.12
2023-04-11T03:40:18.902Z,1001.21
2023-04-11T03:43:18.830Z,1001.1
2023-04-11T03:46:18.860Z,1001.19
2023-04-11T03:49:18.800Z,1001.38
2023-04-11T03:52:18.789Z,1001.39
2023-04-11T03:55:18.786Z,1001.49
2023-04-11T03:58:18.786Z,1001.38
2023-04-11T04:01:18.790Z,1001.41
2023-04-11T04:04:18.830Z,1001.48
2023-04-11T04:07:18.796Z,1001.46
2023-04-11T04:10:18.785Z,1001.46
2023-04-11T04:13:18.777Z,1001.36
2023-04-11T04:16:18.787Z,1001.39
2023-04-11T04:19:18.787Z,1001.37
2023-04-11T04:22:18.778Z,1001.39
2023-04-11T04:25:18.772Z,1001.41
2023-04-11T04:28:18.782Z,1001.55
2023-04-11T04:31:18.802Z,1001.63
2023-04-11T04:34:18.776Z,1001.66
2023-04-11T04:37:18.772Z,1001.68
2023-04-11T04:40:18.772Z,1001.68
2023-04-11T04:43:18.811Z,1001.64
2023-04-11T04:46:18.798Z,1001.61
2023-04-11T04:49:18.766Z,1001.64
2023-04-11T04:52:18.779Z,1001.66
2023-04-11T04:55:18.767Z,1001.68
2023-04-11T04:58:18.763Z,1001.63
2023-04-11T05:01:18.785Z,1001.6
2023-04-11T05:04:18.839Z,1001.66
2023-04-11T05:07:18.789Z,1001.7
2023-04-11T05:10:18.801Z,1001.77
2023-04-11T05:13:18.757Z,1001.76
2023-04-11T05:16:18.798Z,1001.8
2023-04-11T05:19:18.760Z,1001.86
2023-04-11T05:22:18.760Z,1001.8
2023-04-11T05:25:18.755Z,1001.84
2023-04-11T05:28:18.763Z,1001.91
2023-04-11T05:31:18.830Z,1001.89
2023-04-11T05:34:18.765Z,1001.92
2023-04-11T05:37:18.763Z,1001.94
2023-04-11T05:40:18.754Z,1001.98
2023-04-11T05:43:18.757Z,1002.01
2023-04-11T05:46:18.808Z,1002.03
2023-04-11T05:49:18.753Z,1002.05
2023-04-11T05:52:19.088Z,1002.1
2023-04-11T05:55:18.894Z,1002.13
2023-04-11T05:58:18.897Z,1002.13
2023-04-11T06:01:18.894Z,1002.18
2023-04-11T06:04:18.936Z,1002.25
2023-04-11T06:07:18.881Z,1002.3
2023-04-11T06:10:18.878Z,1002.39
2023-04-11T06:13:18.884Z,1002.45
2023-04-11T06:16:18.926Z,1002.46
2023-04-11T06:19:18.907Z,1002.46
2023-04-11T06:22:18.881Z,1002.52
2023-04-11T06:25:18.878Z,1002.62
2023-04-11T06:28:18.876Z,1002.68
2023-04-11T06:31:18.925Z,1002.65
2023-04-11T06:34:18.880Z,1002.62
2023-04-11T06:37:18.895Z,1002.6
2023-04-11T06:40:18.870Z,1002.64
2023-04-11T06:43:18.877Z,1002.72
2023-04-11T06:46:18.911Z,1002.7
2023-04-11T06:49:18.882Z,1002.8
2023-04-11T06:52:18.875Z,1002.82
2023-04-11T06:55:18.883Z,1002.84
2023-04-11T06:58:18.868Z,1002.91
2023-04-11T07:01:18.868Z,1002.95
2023-04-11T07:04:18.964Z,1003.03
2023-04-11T07:07:18.869Z,1003.03
2023-04-11T07:10:18.872Z,1003.1
2023-04-11T07:13:18.863Z,1003.13
2023-04-11T07:16:18.904Z,1003.13
2023-04-11T07:19:18.869Z,1003.12
2023-04-11T07:22:18.867Z,1003.17
2023-04-11T07:25:18.886Z,1003.18
2023-04-11T07:28:18.864Z,1003.15
2023-04-11T07:31:18.895Z,1003.21
2023-04-11T07:34:18.869Z,1003.2
2023-04-11T07:37:18.861Z,1003.26
2023-04-11T07:40:18.891Z,1003.28
2023-04-11T07:43:18.861Z,1003.25
2023-04-11T07:46:18.933Z,1003.28
2023-04-11T07:49:18.861Z,1003.28
2023-04-11T07:52:18.853Z,1003.25
2023-04-11T07:55:18.857Z,1003.3
2023-04-11T07:58:18.871Z,1003.26
2023-04-11T08:01:18.865Z,1003.32
2023-04-11T08:04:19.112Z,1003.33
2023-04-11T08:07:18.854Z,1003.29
2023-04-11T08:10:18.851Z,1003.39
2023-04-11T08:13:18.859Z,1003.33
2023-04-11T08:16:18.893Z,1003.46
2023-04-11T08:19:18.849Z,1003.61
2023-04-11T08:22:18.861Z,1003.57
2023-04-11T08:25:18.886Z,1003.52
2023-04-11T08:28:18.856Z,1003.58
2023-04-11T08:31:18.886Z,1003.66
2023-04-11T08:34:18.848Z,1003.69
2023-04-11T08:37:18.860Z,1003.72
2023-04-11T08:40:18.862Z,1003.69
2023-04-11T08:43:18.850Z,1003.63
2023-04-11T08:46:18.870Z,1003.63
2023-04-11T08:49:18.829Z,1003.61
2023-04-11T08:52:18.845Z,1003.62
2023-04-11T08:55:18.849Z,1003.62
2023-04-11T08:58:18.838Z,1003.65
2023-04-11T09:01:18.853Z,1003.69
2023-04-11T09:04:18.842Z,1003.67
2023-04-11T09:07:18.830Z,1003.72
2023-04-11T09:10:18.838Z,1003.74
2023-04-11T09:13:18.844Z,1003.77
2023-04-11T09:16:18.872Z,1003.84
2023-04-11T09:19:18.825Z,1003.81
2023-04-11T09:22:18.831Z,1003.77
2023-04-11T09:25:18.849Z,1003.87
2023-04-11T09:28:18.832Z,1003.87
2023-04-11T09:31:18.845Z,1003.9
2023-04-11T09:34:18.834Z,1004
2023-04-11T09:37:18.832Z,1004.05
2023-04-11T09:40:18.827Z,1004.07
2023-04-11T09:43:20.300Z,1004.03
2023-04-11T09:46:18.902Z,1004.1
2023-04-11T09:49:18.817Z,1004.04
2023-04-11T09:52:18.810Z,1004.04
2023-04-11T09:55:18.813Z,1004.06
2023-04-11T09:58:18.799Z,1004.06
2023-04-11T10:01:18.925Z,1003.98
2023-04-11T10:04:18.821Z,1003.99
2023-04-11T10:07:18.813Z,1003.96
2023-04-11T10:10:18.806Z,1004.02
2023-04-11T10:13:18.852Z,1003.98
2023-04-11T10:16:18.862Z,1003.94
2023-04-11T10:19:18.790Z,1003.9
2023-04-11T10:22:18.781Z,1003.84
2023-04-11T10:25:18.799Z,1003.78
2023-04-11T10:28:18.785Z,1003.9
2023-04-11T10:31:18.791Z,1003.87
2023-04-11T10:34:18.789Z,1003.95
2023-04-11T10:37:18.786Z,1004.02
2023-04-11T10:40:18.784Z,1003.98
2023-04-11T10:43:18.802Z,1003.93
2023-04-11T10:46:18.797Z,1003.95
2023-04-11T10:49:18.843Z,1003.92
2023-04-11T10:52:18.792Z,1003.92
2023-04-11T10:55:18.809Z,1003.9
2023-04-11T10:58:18.787Z,1003.92
2023-04-11T11:01:26.456Z,1003.88
2023-04-11T11:04:18.950Z,1003.8
2023-04-11T11:07:18.791Z,1003.79
2023-04-11T11:10:18.773Z,1003.73
2023-04-11T11:13:18.777Z,1003.71
2023-04-11T11:16:18.797Z,1003.72
2023-04-11T11:19:18.775Z,1003.75
2023-04-11T11:22:18.789Z,1003.72
2023-04-11T11:25:18.778Z,1003.61
2023-04-11T11:28:18.777Z,1003.68
2023-04-11T11:31:18.811Z,1003.67
2023-04-11T11:37:18.767Z,1003.63
2023-04-11T11:40:18.767Z,1003.63
2023-04-11T11:43:18.780Z,1003.58
2023-04-11T11:46:18.776Z,1003.58
2023-04-11T11:49:18.780Z,1003.63
2023-04-11T11:52:18.780Z,1003.69
2023-04-11T11:55:18.765Z,1003.76
2023-04-11T11:58:18.771Z,1003.81
2023-04-11T12:01:18.779Z,1003.78
2023-04-11T12:04:18.878Z,1003.81
2023-04-11T12:07:18.762Z,1003.86
2023-04-11T12:10:18.756Z,1003.82
2023-04-11T12:13:18.774Z,1003.87
2023-04-11T12:16:18.787Z,1003.89
2023-04-11T12:19:18.758Z,1003.8
2023-04-11T12:22:18.758Z,1003.8
2023-04-11T12:25:18.761Z,1003.76
2023-04-11T12:28:18.776Z,1003.74
2023-04-11T12:31:18.781Z,1003.78
2023-04-11T12:34:18.761Z,1003.77
2023-04-11T12:37:18.768Z,1003.76
2023-04-11T12:40:18.756Z,1003.72
2023-04-11T12:43:18.755Z,1003.73
2023-04-11T12:46:18.773Z,1003.68
2023-04-11T12:49:18.752Z,1003.66
2023-04-11T12:52:18.756Z,1003.65
2023-04-11T12:55:18.803Z,1003.67
2023-04-11T12:58:18.748Z,1003.69
2023-04-11T13:01:18.769Z,1003.72
2023-04-11T13:04:18.817Z,1003.75
2023-04-11T13:07:18.756Z,1003.7
2023-04-11T13:10:18.751Z,1003.68
2023-04-11T13:13:19.034Z,1003.66
2023-04-11T13:16:18.762Z,1003.62
2023-04-11T13:19:18.763Z,1003.57
2023-04-11T13:22:18.752Z,1003.55
2023-04-11T13:25:18.750Z,1003.49
2023-04-11T13:28:18.754Z,1003.52
2023-04-11T13:31:18.771Z,1003.6
2023-04-11T13:34:18.853Z,1003.54
2023-04-11T13:37:18.746Z,1003.5
2023-04-11T13:40:18.742Z,1003.45
2023-04-11T13:43:18.741Z,1003.45
2023-04-11T13:46:18.769Z,1003.48
2023-04-11T13:49:18.732Z,1003.53
2023-04-11T13:52:18.752Z,1003.54
2023-04-11T13:55:18.744Z,1003.55
2023-04-11T13:58:18.739Z,1003.62
2023-04-11T14:01:18.759Z,1003.67
2023-04-11T14:04:18.834Z,1003.59
2023-04-11T14:07:18.765Z,1003.54
2023-04-11T14:10:18.839Z,1003.59
2023-04-11T14:13:18.764Z,1003.6
2023-04-11T14:16:18.798Z,1003.57
2023-04-11T14:19:18.762Z,1003.53
2023-04-11T14:22:18.771Z,1003.57
2023-04-11T14:25:18.765Z,1003.53
2023-04-11T14:28:18.750Z,1003.48
2023-04-11T14:31:18.829Z,1003.51
2023-04-11T14:34:18.765Z,1003.47
2023-04-11T14:37:18.756Z,1003.46
2023-04-11T14:40:18.758Z,1003.43
2023-04-11T14:43:18.759Z,1003.51
2023-04-11T14:46:18.793Z,1003.47
2023-04-11T14:49:18.756Z,1003.46
2023-04-11T14:52:18.764Z,1003.46
2023-04-11T14:55:18.753Z,1003.47
2023-04-11T14:58:18.747Z,1003.47
2023-04-11T15:01:18.772Z,1003.56
2023-04-11T15:04:18.841Z,1003.65
2023-04-11T15:07:18.748Z,1003.62
2023-04-11T15:10:18.743Z,1003.61
2023-04-11T15:13:18.744Z,1003.65
2023-04-11T15:16:19.400Z,1003.63
2023-04-11T15:19:18.739Z,1003.61
2023-04-11T15:22:18.734Z,1003.64
2023-04-11T15:25:18.736Z,1003.66
2023-04-11T15:28:18.751Z,1003.69
2023-04-11T15:31:18.803Z,1003.74
2023-04-11T15:34:18.737Z,1003.79
2023-04-11T15:37:18.741Z,1003.74
2023-04-11T15:40:18.741Z,1003.72
2023-04-11T15:43:18.816Z,1003.71
2023-04-11T15:46:18.776Z,1003.56
2023-04-11T15:49:18.737Z,1003.5
2023-04-11T15:52:18.737Z,1003.45
2023-04-11T15:55:18.748Z,1003.43
2023-04-11T15:58:18.731Z,1003.47
2023-04-11T16:01:18.744Z,1003.45
2023-04-11T16:04:18.804Z,1003.41
2023-04-11T16:07:18.745Z,1003.42
2023-04-11T16:10:18.732Z,1003.39
2023-04-11T16:13:18.752Z,1003.34
2023-04-11T16:16:18.747Z,1003.38
2023-04-11T16:19:18.740Z,1003.38
2023-04-11T16:22:18.728Z,1003.34
2023-04-11T16:25:18.754Z,1003.31
2023-04-11T16:28:18.765Z,1003.29
2023-04-11T16:31:18.758Z,1003.35
2023-04-11T16:34:18.734Z,1003.33
2023-04-11T16:37:18.723Z,1003.35
2023-04-11T16:40:18.730Z,1003.29
2023-04-11T16:43:18.725Z,1003.29
2023-04-11T16:46:18.780Z,1003.27
2023-04-11T16:49:18.715Z,1003.28
2023-04-11T16:52:18.721Z,1003.21
2023-04-11T16:55:18.724Z,1003.21
2023-04-11T16:58:18.712Z,1003.18
2023-04-11T17:01:18.745Z,1003.17
2023-04-11T17:04:18.833Z,1003.15
2023-04-11T17:07:18.722Z,1003.15
2023-04-11T17:10:18.724Z,1003.14
2023-04-11T17:13:18.812Z,1003.13
2023-04-11T17:16:18.739Z,1003.12
2023-04-11T17:19:18.708Z,1003.13
2023-04-11T17:22:18.713Z,1003.12
2023-04-11T17:25:18.706Z,1003.14
2023-04-11T17:28:18.714Z,1003.08
2023-04-11T17:31:18.762Z,1003.09
2023-04-11T17:34:18.707Z,1003.1
2023-04-11T17:37:18.705Z,1003.13
2023-04-11T17:40:18.721Z,1003.16
2023-04-11T17:43:18.701Z,1003.2
2023-04-11T17:46:18.714Z,1003.2
2023-04-11T17:49:18.698Z,1003.22
2023-04-11T17:52:18.701Z,1003.29
2023-04-11T17:55:18.733Z,1003.29
2023-04-11T17:58:18.698Z,1003.35
2023-04-11T18:01:18.709Z,1003.36
2023-04-11T18:04:18.763Z,1003.39
2023-04-11T18:07:18.722Z,1003.34
2023-04-11T18:10:18.706Z,1003.38
2023-04-11T18:13:18.698Z,1003.43
2023-04-11T18:16:18.859Z,1003.43
2023-04-11T18:19:18.990Z,1003.45
2023-04-11T18:22:18.710Z,1003.44
2023-04-11T18:25:18.704Z,1003.42
2023-04-11T18:28:18.706Z,1003.39
2023-04-11T18:31:18.718Z,1003.43
2023-04-11T18:34:18.808Z,1003.46
2023-04-11T18:37:18.693Z,1003.42
2023-04-11T18:40:18.935Z,1003.38
2023-04-11T18:43:18.699Z,1003.37
2023-04-11T18:46:18.698Z,1003.43
2023-04-11T18:49:18.688Z,1003.44
2023-04-11T18:52:18.687Z,1003.41
2023-04-11T18:55:18.680Z,1003.4
2023-04-11T18:58:19.427Z,1003.41
2023-04-11T19:01:18.732Z,1003.43
2023-04-11T19:04:19.320Z,1003.47
2023-04-11T19:07:18.682Z,1003.47
2023-04-11T19:10:18.682Z,1003.47
2023-04-11T19:13:18.678Z,1003.43
2023-04-11T19:16:18.706Z,1003.38
2023-04-11T19:19:18.670Z,1003.3
2023-04-11T19:22:18.696Z,1003.29
2023-04-11T19:25:18.676Z,1003.28
2023-04-11T19:28:18.682Z,1003.28
2023-04-11T19:31:18.685Z,1003.26
2023-04-11T19:34:18.672Z,1003.22
2023-04-11T19:37:18.690Z,1003.17
2023-04-11T19:40:18.666Z,1003.11
2023-04-11T19:43:18.673Z,1003.04
2023-04-11T19:46:18.698Z,1003.06
2023-04-11T19:49:18.674Z,1003.06
2023-04-11T19:52:18.683Z,1003.03
2023-04-11T19:55:18.668Z,1003
2023-04-11T19:58:18.676Z,1002.96
2023-04-11T20:01:18.683Z,1002.91
2023-04-11T20:04:18.772Z,1002.88
2023-04-11T20:07:18.685Z,1002.89
2023-04-11T20:10:18.686Z,1002.86
2023-04-11T20:13:18.663Z,1002.87
2023-04-11T20:16:18.670Z,1002.92
2023-04-11T20:19:18.828Z,1002.89
2023-04-11T20:22:18.670Z,1002.9
2023-04-11T20:25:18.674Z,1002.85
2023-04-11T20:28:18.668Z,1002.83
2023-04-11T20:31:18.695Z,1002.74
2023-04-11T20:34:18.667Z,1002.7
2023-04-11T20:37:19.011Z,1002.59
2023-04-11T20:40:18.745Z,1002.58
2023-04-11T20:43:18.667Z,1002.59
2023-04-11T20:46:18.664Z,1002.58
2023-04-11T20:49:18.676Z,1002.58
2023-04-11T20:52:18.664Z,1002.52
2023-04-11T20:55:18.669Z,1002.49
2023-04-11T20:58:18.757Z,1002.4
2023-04-11T21:01:18.688Z,1002.38
2023-04-11T21:04:18.769Z,1002.36
2023-04-11T21:07:18.659Z,1002.34
2023-04-11T21:10:18.652Z,1002.3
2023-04-11T21:13:18.820Z,1002.2
2023-04-11T21:16:18.702Z,1002.18
2023-04-11T21:19:18.658Z,1002.17
2023-04-11T21:22:18.647Z,1002.11
2023-04-11T21:25:18.657Z,1002.08
2023-04-11T21:28:18.652Z,1001.99
2023-04-11T21:31:18.701Z,1001.98
2023-04-11T21:34:18.647Z,1001.93
2023-04-11T21:37:18.654Z,1001.91
2023-04-11T21:40:18.651Z,1001.89
2023-04-11T21:43:18.651Z,1001.89
2023-04-11T21:46:18.684Z,1001.82
2023-04-11T21:49:18.650Z,1001.75
2023-04-11T21:52:18.666Z,1001.74
2023-04-11T21:55:18.646Z,1001.68
2023-04-11T21:58:28.389Z,1001.63
2023-04-11T22:01:18.646Z,1001.61
2023-04-11T22:04:18.802Z,1001.52
2023-04-11T22:07:18.661Z,1001.48
2023-04-11T22:10:18.639Z,1001.5
2023-04-11T22:13:18.685Z,1001.51
2023-04-11T22:16:18.742Z,1001.56
2023-04-11T22:19:18.743Z,1001.51
2023-04-11T22:22:18.735Z,1001.44
2023-04-11T22:25:18.657Z,1001.39
2023-04-11T22:28:18.651Z,1001.38
2023-04-11T22:31:18.656Z,1001.32
2023-04-11T22:34:18.638Z,1001.3
2023-04-11T22:37:18.635Z,1001.33
2023-04-11T22:40:18.980Z,1001.3
2023-04-11T22:43:18.643Z,1001.27
2023-04-11T22:46:18.725Z,1001.21
2023-04-11T22:49:18.634Z,1001.16
2023-04-11T22:52:18.632Z,1001.07
2023-04-11T22:55:18.642Z,1000.97
2023-04-11T22:58:18.642Z,1000.91
2023-04-11T23:01:18.639Z,1000.89
2023-04-11T23:04:18.663Z,1000.82
2023-04-11T23:07:18.624Z,1000.82
2023-04-11T23:10:18.628Z,1000.79
2023-04-11T23:13:18.626Z,1000.74
2023-04-11T23:16:18.645Z,1000.69
2023-04-11T23:19:18.855Z,1000.67
2023-04-11T23:22:18.637Z,1000.64
2023-04-11T23:25:18.635Z,1000.64
2023-04-11T23:28:18.630Z,1000.61
2023-04-11T23:31:18.645Z,1000.51
2023-04-11T23:34:18.614Z,1000.38
2023-04-11T23:37:18.612Z,1000.36
2023-04-11T23:40:18.613Z,1000.32
2023-04-11T23:43:18.611Z,1000.25
2023-04-11T23:46:18.650Z,1000.19
2023-04-11T23:49:18.610Z,1000.14
2023-04-11T23:52:18.611Z,1000.1
2023-04-11T23:55:18.611Z,999.98
2023-04-11T23:58:18.611Z,999.85
